Time;durP1;ratioP1;P1;durP2;ratioP2;P2;SDS_P1;SDS_P2;PMS_P1;PMS_P2;Temp;Humidity;BMP_temperature;BMP_pressure;BME280_temperature;BME280_humidity;BME280_pressure;Samples;Min_cycle;Max_cycle;Signal;HPM_P1;HPM_P2
2023/05/13 00:01:23;;;;;;;3.20;2.60;;;19.50;68.60;;;;;;5031684;28;20471;-78
2023/05/13 00:03:49;;;;;;;3.03;2.70;;;19.50;68.60;;;;;;5031860;28;20029;-78
2023/05/13 00:06:14;;;;;;;2.95;2.63;;;19.40;68.60;;;;;;5015508;28;20051;-78
2023/05/13 00:08:40;;;;;;;3.28;2.70;;;19.40;68.60;;;;;;4983394;28;20085;-78
2023/05/13 00:11:06;;;;;;;3.33;2.55;;;19.40;68.60;;;;;;4998681;28;20034;-78
2023/05/13 00:13:32;;;;;;;3.55;2.60;;;19.40;68.60;;;;;;5031069;28;20087;-78
2023/05/13 00:15:58;;;;;;;3.33;2.60;;;19.40;68.60;;;;;;5031826;28;20467;-78
2023/05/13 00:18:24;;;;;;;2.92;2.58;;;19.30;69.20;;;;;;5015180;28;20120;-78
2023/05/13 00:20:50;;;;;;;3.20;2.67;;;19.30;68.60;;;;;;5048797;28;20030;-78
2023/05/13 00:23:16;;;;;;;3.88;2.80;;;19.30;68.60;;;;;;5014934;28;20026;-78
2023/05/13 00:25:43;;;;;;;3.10;2.55;;;19.30;68.60;;;;;;5031585;28;20160;-78
2023/05/13 00:28:10;;;;;;;3.03;2.60;;;19.30;68.70;;;;;;5014732;28;20030;-78
2023/05/13 00:30:36;;;;;;;3.28;2.60;;;19.30;68.70;;;;;;4999274;28;20057;-78
2023/05/13 00:33:02;;;;;;;3.78;2.85;;;19.20;68.60;;;;;;4998330;28;20022;-78
2023/05/13 00:35:28;;;;;;;3.08;2.78;;;19.20;68.60;;;;;;4998443;28;20084;-78
2023/05/13 00:37:53;;;;;;;3.60;2.80;;;19.20;68.60;;;;;;4998590;28;20109;-78
2023/05/13 00:40:22;;;;;;;3.88;2.50;;;19.20;68.60;;;;;;4982402;28;20049;-78
2023/05/13 00:42:48;;;;;;;3.83;2.65;;;19.10;68.60;;;;;;4999008;28;20351;-78
2023/05/13 00:45:14;;;;;;;3.88;2.72;;;19.10;68.60;;;;;;5031181;28;20037;-78
2023/05/13 00:47:41;;;;;;;3.13;2.67;;;19.10;68.60;;;;;;5047759;28;20513;-78
2023/05/13 00:50:12;;;;;;;3.60;2.90;;;19.10;68.60;;;;;;5030725;28;20030;-78
2023/05/13 00:52:39;;;;;;;3.38;2.85;;;19.10;68.50;;;;;;5015875;28;20030;-78
2023/05/13 00:55:05;;;;;;;3.85;2.90;;;19.00;68.50;;;;;;5015054;28;20137;-78
2023/05/13 00:57:32;;;;;;;3.17;2.60;;;19.00;68.50;;;;;;5014334;28;20414;-78
2023/05/13 00:59:58;;;;;;;3.50;2.92;;;19.00;68.50;;;;;;5013896;28;20058;-78
2023/05/13 01:02:43;;;;;;;3.40;2.50;;;19.00;68.60;;;;;;4997983;28;20037;-78
2023/05/13 01:05:14;;;;;;;3.45;2.92;;;18.90;68.60;;;;;;4997459;28;20119;-78
2023/05/13 01:08:00;;;;;;;3.63;2.75;;;18.90;68.50;;;;;;5047025;28;20061;-78
2023/05/13 01:10:51;;;;;;;3.05;2.67;;;18.90;68.60;;;;;;5047235;28;20066;-78
2023/05/13 01:13:23;;;;;;;3.80;2.85;;;18.90;68.50;;;;;;5014235;28;20057;-78
2023/05/13 01:16:00;;;;;;;3.38;2.55;;;18.80;68.50;;;;;;5031154;28;20026;-78
2023/05/13 01:18:39;;;;;;;3.53;2.88;;;18.80;68.50;;;;;;5030235;28;20091;-78
2023/05/13 01:21:06;;;;;;;3.10;2.58;;;18.80;68.60;;;;;;5014237;28;20044;-78
2023/05/13 01:23:32;;;;;;;3.08;2.72;;;18.70;68.60;;;;;;4997701;28;20037;-79
2023/05/13 01:25:58;;;;;;;3.53;2.88;;;18.70;68.60;;;;;;5012714;28;20367;-78
2023/05/13 01:28:24;;;;;;;3.67;2.95;;;18.70;68.60;;;;;;5047846;28;20118;-78
2023/05/13 01:30:52;;;;;;;3.63;3.00;;;18.70;68.60;;;;;;5046917;28;20030;-78
2023/05/13 01:33:19;;;;;;;3.40;3.10;;;18.70;68.60;;;;;;5029953;28;20034;-78
2023/05/13 01:35:46;;;;;;;3.50;3.00;;;18.70;68.60;;;;;;4997598;28;20022;-78
2023/05/13 01:38:14;;;;;;;4.43;2.65;;;18.60;68.60;;;;;;5013651;28;20038;-78
2023/05/13 01:40:45;;;;;;;4.13;3.00;;;18.60;68.60;;;;;;5013681;28;20045;-78
2023/05/13 01:43:11;;;;;;;3.45;2.85;;;18.60;68.60;;;;;;5047167;28;20374;-78
2023/05/13 01:45:37;;;;;;;3.50;3.03;;;18.60;68.60;;;;;;4996974;28;20129;-78
2023/05/13 01:48:03;;;;;;;3.42;3.00;;;18.60;68.60;;;;;;5046194;28;20037;-78
2023/05/13 01:50:42;;;;;;;3.30;2.80;;;18.50;68.70;;;;;;4999924;28;20451;-78
2023/05/13 01:53:08;;;;;;;3.67;2.85;;;18.50;68.60;;;;;;5031551;28;20037;-77
2023/05/13 01:55:35;;;;;;;3.42;2.90;;;18.50;68.70;;;;;;5002924;28;20052;-78
2023/05/13 01:58:03;;;;;;;3.95;2.90;;;18.40;68.70;;;;;;5017899;28;20090;-78
2023/05/13 02:00:28;;;;;;;3.20;2.90;;;18.50;68.70;;;;;;4999906;28;20124;-79
2023/05/13 02:02:55;;;;;;;3.65;2.90;;;18.40;69.30;;;;;;5013724;28;20026;-78
2023/05/13 02:05:21;;;;;;;3.03;2.72;;;18.40;68.70;;;;;;4997007;28;20037;-78
2023/05/13 02:07:47;;;;;;;2.83;2.63;;;18.40;68.70;;;;;;5013279;28;20030;-78
2023/05/13 02:10:13;;;;;;;4.15;3.22;;;18.40;68.70;;;;;;4996710;28;20041;-78
2023/05/13 02:12:39;;;;;;;4.05;2.90;;;18.30;68.60;;;;;;5013203;28;20033;-78
2023/05/13 02:15:05;;;;;;;3.28;2.88;;;18.30;68.60;;;;;;5013755;28;20458;-78
2023/05/13 02:17:31;;;;;;;3.78;3.00;;;18.30;68.70;;;;;;5013136;28;20449;-78
2023/05/13 02:19:56;;;;;;;3.40;3.05;;;18.30;68.70;;;;;;4996242;28;20038;-78
2023/05/13 02:22:22;;;;;;;3.58;2.92;;;18.20;68.70;;;;;;5029246;28;20038;-78
2023/05/13 02:24:48;;;;;;;4.55;3.25;;;18.20;68.70;;;;;;4980474;28;20038;-78
2023/05/13 02:27:15;;;;;;;4.05;3.10;;;18.20;68.70;;;;;;4996262;28;20068;-78
2023/05/13 02:29:41;;;;;;;4.78;3.00;;;18.20;68.70;;;;;;5013287;28;20142;-79
2023/05/13 02:32:07;;;;;;;3.25;2.85;;;18.20;68.70;;;;;;5013866;28;20026;-78
2023/05/13 02:34:33;;;;;;;3.85;3.33;;;18.10;68.80;;;;;;4996940;28;20387;-78
2023/05/13 02:36:59;;;;;;;3.53;2.85;;;18.10;68.80;;;;;;5012331;28;20554;-78
2023/05/13 02:39:25;;;;;;;3.60;2.88;;;18.10;68.80;;;;;;4997052;28;20038;-78
2023/05/13 02:41:54;;;;;;;4.05;3.10;;;18.10;68.80;;;;;;5028731;28;20133;-78
2023/05/13 02:44:20;;;;;;;3.47;2.83;;;18.00;68.80;;;;;;4996196;28;20045;-78
2023/05/13 02:46:46;;;;;;;4.15;3.35;;;18.00;68.80;;;;;;4996282;28;20029;-78
2023/05/13 02:49:12;;;;;;;3.92;3.10;;;18.00;68.90;;;;;;5012657;28;20030;-78
2023/05/13 02:51:38;;;;;;;3.75;2.90;;;17.90;68.80;;;;;;5012653;28;20034;-78
2023/05/13 02:54:05;;;;;;;4.13;3.08;;;17.90;68.90;;;;;;5012612;28;20026;-78
2023/05/13 02:56:30;;;;;;;3.20;2.75;;;17.90;68.90;;;;;;5028888;28;20429;-78
2023/05/13 02:58:57;;;;;;;3.63;3.13;;;17.90;69.00;;;;;;4996338;28;20410;-78
2023/05/13 03:01:25;;;;;;;3.55;2.97;;;17.90;69.00;;;;;;5045485;28;20026;-78
2023/05/13 03:03:51;;;;;;;4.55;3.25;;;17.80;69.00;;;;;;4997081;28;20399;-78
2023/05/13 03:06:16;;;;;;;3.33;2.83;;;17.80;69.00;;;;;;4996716;28;20034;-78
2023/05/13 03:08:42;;;;;;;3.88;3.33;;;17.80;69.10;;;;;;5012413;28;20494;-78
2023/05/13 03:11:08;;;;;;;4.00;3.08;;;17.70;69.00;;;;;;5045405;28;20441;-78
2023/05/13 03:13:34;;;;;;;3.42;3.00;;;17.70;69.00;;;;;;5044984;28;20125;-78
2023/05/13 03:15:59;;;;;;;4.38;3.35;;;17.70;69.00;;;;;;5013021;28;20073;-79
2023/05/13 03:18:27;;;;;;;4.40;3.30;;;17.70;69.10;;;;;;5045266;28;20034;-78
2023/05/13 03:20:53;;;;;;;4.50;3.42;;;17.70;69.10;;;;;;5012498;28;20127;-79
2023/05/13 03:23:19;;;;;;;5.40;3.20;;;17.60;69.10;;;;;;5012212;28;20030;-78
2023/05/13 03:25:47;;;;;;;4.10;3.10;;;17.60;69.20;;;;;;4995979;28;20125;-79
2023/05/13 03:28:12;;;;;;;4.43;3.30;;;17.60;69.10;;;;;;4996045;28;20109;-78
2023/05/13 03:30:42;;;;;;;4.38;3.40;;;17.60;69.20;;;;;;4996246;28;20441;-79
2023/05/13 03:33:13;;;;;;;3.40;2.92;;;17.50;69.10;;;;;;4997117;28;20030;-78
2023/05/13 03:35:39;;;;;;;3.60;2.95;;;17.50;69.20;;;;;;5012145;28;20042;-78
2023/05/13 03:38:05;;;;;;;4.47;3.28;;;17.50;69.20;;;;;;4996497;28;20447;-78
2023/05/13 03:40:34;;;;;;;4.78;3.50;;;17.50;69.20;;;;;;5028177;28;20045;-78
2023/05/13 03:42:59;;;;;;;3.58;3.10;;;17.40;69.20;;;;;;5012286;28;20037;-78
2023/05/13 03:45:26;;;;;;;4.00;3.20;;;17.50;69.30;;;;;;5045676;28;20034;-78
2023/05/13 03:47:56;;;;;;;4.30;3.38;;;17.40;69.30;;;;;;5012868;28;20025;-78
2023/05/13 03:50:23;;;;;;;3.55;3.05;;;17.40;69.30;;;;;;5015609;28;20474;-78
2023/05/13 03:52:50;;;;;;;4.32;3.53;;;17.30;69.30;;;;;;4999332;28;20041;-78
2023/05/13 03:55:18;;;;;;;4.20;3.63;;;17.30;69.30;;;;;;4999583;28;20061;-79
2023/05/13 03:57:47;;;;;;;4.50;3.58;;;17.30;69.30;;;;;;5015511;28;20084;-79
2023/05/13 04:00:13;;;;;;;4.53;3.40;;;17.30;69.30;;;;;;5031820;28;20038;-78
2023/05/13 04:02:42;;;;;;;4.18;3.45;;;17.30;69.40;;;;;;5015802;28;20471;-78
2023/05/13 04:05:09;;;;;;;4.32;3.45;;;17.20;69.40;;;;;;4999245;28;20038;-78
2023/05/13 04:07:35;;;;;;;4.28;3.58;;;17.20;69.40;;;;;;5031618;28;20430;-78
2023/05/13 04:10:01;;;;;;;4.82;3.42;;;17.20;69.40;;;;;;5048290;28;20038;-78
2023/05/13 04:12:26;;;;;;;4.30;3.30;;;17.20;69.50;;;;;;4999528;28;20463;-78
2023/05/13 04:14:52;;;;;;;4.20;3.40;;;17.10;69.40;;;;;;4982558;28;20128;-78
2023/05/13 04:17:18;;;;;;;4.07;3.60;;;17.10;69.50;;;;;;5015951;28;20036;-78
2023/05/13 04:19:43;;;;;;;5.30;3.60;;;17.10;69.50;;;;;;5047902;28;20395;-78
2023/05/13 04:22:09;;;;;;;5.05;3.45;;;17.10;69.50;;;;;;5048617;28;20387;-78
2023/05/13 04:24:35;;;;;;;4.68;3.67;;;17.10;69.50;;;;;;5016057;28;20029;-78
2023/05/13 04:27:01;;;;;;;4.38;3.53;;;17.00;69.50;;;;;;4998728;28;20022;-79
2023/05/13 04:29:27;;;;;;;4.25;3.38;;;17.00;69.50;;;;;;5015472;28;20128;-78
2023/05/13 04:31:53;;;;;;;4.22;3.65;;;17.00;69.60;;;;;;5048097;28;20064;-78
2023/05/13 04:34:19;;;;;;;4.63;3.70;;;16.90;69.50;;;;;;5014975;28;20026;-78
2023/05/13 04:36:47;;;;;;;5.10;3.90;;;16.90;69.60;;;;;;4998756;28;20030;-78
2023/05/13 04:39:13;;;;;;;3.88;3.25;;;16.90;69.60;;;;;;5018230;28;20069;-78
2023/05/13 04:41:39;;;;;;;4.75;3.60;;;16.90;69.60;;;;;;5001284;28;20058;-78
2023/05/13 04:44:05;;;;;;;4.25;3.70;;;16.90;69.60;;;;;;5000536;28;20049;-78
2023/05/13 04:46:32;;;;;;;4.38;3.50;;;16.80;69.60;;;;;;4998796;28;20030;-78
2023/05/13 04:48:57;;;;;;;4.78;3.90;;;16.80;69.70;;;;;;5015203;28;20034;-78
2023/05/13 04:51:23;;;;;;;5.10;3.50;;;16.80;69.70;;;;;;4998504;28;20105;-78
2023/05/13 04:53:50;;;;;;;3.90;3.38;;;16.80;69.70;;;;;;5030932;28;20044;-78
2023/05/13 04:56:17;;;;;;;4.15;3.72;;;16.80;69.70;;;;;;4998944;28;20049;-79
2023/05/13 04:58:43;;;;;;;4.68;3.72;;;16.70;69.70;;;;;;4997625;28;20042;-78
2023/05/13 05:01:10;;;;;;;4.45;3.67;;;16.70;69.70;;;;;;5014621;28;20057;-78
2023/05/13 05:03:36;;;;;;;5.65;3.85;;;16.70;69.70;;;;;;4997929;28;20463;-78
2023/05/13 05:06:03;;;;;;;4.47;3.67;;;16.70;69.80;;;;;;4997806;28;20029;-78
2023/05/13 05:08:29;;;;;;;4.68;4.00;;;16.70;69.80;;;;;;4997772;28;20038;-78
2023/05/13 05:10:56;;;;;;;4.15;3.75;;;16.70;69.80;;;;;;5014217;28;20386;-78
2023/05/13 05:13:22;;;;;;;4.70;3.88;;;16.60;69.80;;;;;;5014023;28;20033;-78
2023/05/13 05:15:48;;;;;;;4.18;3.60;;;16.60;69.80;;;;;;5014155;28;20026;-78
2023/05/13 05:18:14;;;;;;;4.10;3.63;;;16.60;69.80;;;;;;4997304;28;20068;-78
2023/05/13 05:20:42;;;;;;;5.57;4.00;;;16.60;69.90;;;;;;4997859;28;20429;-78
2023/05/13 05:23:13;;;;;;;4.68;4.05;;;16.50;69.80;;;;;;5014529;28;20068;-78
2023/05/13 05:25:39;;;;;;;4.72;4.13;;;16.50;69.80;;;;;;4997500;28;20124;-78
2023/05/13 05:28:05;;;;;;;4.68;4.00;;;16.50;69.90;;;;;;5013837;28;20038;-78
2023/05/13 05:30:38;;;;;;;5.43;4.25;;;16.50;69.90;;;;;;5014402;28;20033;-78
2023/05/13 05:33:06;;;;;;;4.43;3.87;;;16.50;69.90;;;;;;5014120;28;20092;-78
2023/05/13 05:35:37;;;;;;;4.30;3.90;;;16.50;70.00;;;;;;4997532;28;20022;-78
2023/05/13 05:38:04;;;;;;;5.07;4.20;;;16.50;70.00;;;;;;5013675;28;20030;-78
2023/05/13 05:40:31;;;;;;;4.72;3.83;;;16.40;70.00;;;;;;5029731;28;20064;-78
2023/05/13 05:42:58;;;;;;;4.68;3.85;;;16.40;70.00;;;;;;5013725;28;20113;-78
2023/05/13 05:45:24;;;;;;;4.63;3.80;;;16.40;70.00;;;;;;4980866;28;20132;-78
2023/05/13 05:47:50;;;;;;;5.05;4.05;;;16.40;70.00;;;;;;5013339;28;20049;-78
2023/05/13 05:50:16;;;;;;;4.93;4.00;;;16.40;70.10;;;;;;5013582;28;20048;-78
2023/05/13 05:52:42;;;;;;;5.32;3.80;;;16.40;70.10;;;;;;5013271;28;20026;-78
2023/05/13 05:55:10;;;;;;;5.10;4.15;;;16.40;70.10;;;;;;5045955;28;20037;-78
2023/05/13 05:57:36;;;;;;;5.03;3.97;;;16.30;70.10;;;;;;4996992;28;20469;-78
2023/05/13 06:00:03;;;;;;;4.65;3.97;;;16.40;70.20;;;;;;4997672;28;20026;-78
2023/05/13 06:02:29;;;;;;;5.45;3.88;;;16.40;70.20;;;;;;4980866;28;20125;-78
2023/05/13 06:04:55;;;;;;;4.80;4.03;;;16.30;70.10;;;;;;4997095;28;20081;-78
2023/05/13 06:07:21;;;;;;;4.32;3.75;;;16.30;70.10;;;;;;5013026;28;20026;-78
2023/05/13 06:09:47;;;;;;;4.95;4.10;;;16.30;70.20;;;;;;5013043;28;20038;-78
2023/05/13 06:12:12;;;;;;;5.70;4.38;;;16.30;70.20;;;;;;4995822;28;20055;-79
2023/05/13 06:14:38;;;;;;;5.60;4.38;;;16.30;70.20;;;;;;5012985;28;20105;-78
2023/05/13 06:17:04;;;;;;;5.38;4.15;;;16.30;70.30;;;;;;4980467;28;20056;-79
2023/05/13 06:19:30;;;;;;;5.75;4.30;;;16.30;70.30;;;;;;5029198;28;20376;-78
2023/05/13 06:21:56;;;;;;;4.80;3.92;;;16.30;70.30;;;;;;5013317;28;20034;-78
2023/05/13 06:24:22;;;;;;;4.97;4.43;;;16.30;70.30;;;;;;4996358;28;20485;-79
2023/05/13 06:26:47;;;;;;;5.35;4.45;;;16.30;70.30;;;;;;5012792;28;20129;-78
2023/05/13 06:29:13;;;;;;;4.28;3.88;;;16.30;70.30;;;;;;4980229;28;20053;-78
2023/05/13 06:31:39;;;;;;;5.85;4.20;;;16.30;70.30;;;;;;5012730;28;20061;-79
2023/05/13 06:34:06;;;;;;;4.93;4.43;;;16.30;70.40;;;;;;4996500;28;20450;-78
2023/05/13 06:36:32;;;;;;;5.20;4.35;;;16.30;70.40;;;;;;5012601;28;20038;-78
2023/05/13 06:39:00;;;;;;;4.75;4.05;;;16.30;70.40;;;;;;4996413;28;20033;-78
2023/05/13 06:41:26;;;;;;;5.80;4.40;;;16.30;70.40;;;;;;4996265;28;20050;-78
2023/05/13 06:43:56;;;;;;;4.88;4.07;;;16.30;71.00;;;;;;4997171;28;20422;-78
2023/05/13 06:46:26;;;;;;;5.65;4.63;;;16.30;70.40;;;;;;5013395;28;20036;-78
2023/05/13 06:48:54;;;;;;;5.13;4.25;;;16.30;70.40;;;;;;4995814;28;20030;-78
2023/05/13 06:51:20;;;;;;;5.05;4.25;;;16.30;70.50;;;;;;5028650;28;20040;-78
2023/05/13 06:53:46;;;;;;;5.80;4.55;;;16.30;70.50;;;;;;4996233;28;20034;-78
2023/05/13 06:56:11;;;;;;;4.97;4.22;;;16.30;70.50;;;;;;4995825;28;20048;-78
2023/05/13 06:58:37;;;;;;;5.45;4.20;;;16.30;70.50;;;;;;5012599;28;20164;-78
2023/05/13 07:01:03;;;;;;;5.20;4.50;;;16.30;70.50;;;;;;4979776;28;20032;-78
2023/05/13 07:03:29;;;;;;;4.90;4.03;;;16.30;70.50;;;;;;5045421;28;20058;-78
2023/05/13 07:05:54;;;;;;;4.72;4.10;;;16.30;70.50;;;;;;4995977;28;20395;-78
2023/05/13 07:08:20;;;;;;;4.63;3.97;;;16.30;70.50;;;;;;5012195;28;20030;-78
2023/05/13 07:10:46;;;;;;;5.32;4.50;;;16.30;70.40;;;;;;5012677;28;20045;-78
2023/05/13 07:13:12;;;;;;;5.80;4.32;;;16.40;70.50;;;;;;5012837;28;20034;-78
2023/05/13 07:15:38;;;;;;;5.60;4.13;;;16.40;70.50;;;;;;5029521;28;20117;-78
2023/05/13 07:18:03;;;;;;;5.13;4.50;;;16.40;70.50;;;;;;5012058;28;20441;-78
2023/05/13 07:20:30;;;;;;;5.13;4.45;;;16.40;70.50;;;;;;4996111;28;20087;-78
2023/05/13 07:22:56;;;;;;;5.97;4.57;;;16.40;70.40;;;;;;5015118;28;20045;-77
2023/05/13 07:25:22;;;;;;;5.75;4.68;;;16.40;70.40;;;;;;5037017;28;20480;-78
2023/05/13 07:27:47;;;;;;;5.20;4.38;;;16.40;70.40;;;;;;5020624;28;20113;-78
2023/05/13 07:30:13;;;;;;;6.03;4.43;;;16.40;70.30;;;;;;5016740;28;20367;-78
2023/05/13 07:32:40;;;;;;;5.75;4.75;;;16.40;70.20;;;;;;5033081;28;20466;-78
2023/05/13 07:35:06;;;;;;;5.60;4.35;;;16.50;70.30;;;;;;5016038;28;20034;-78
2023/05/13 07:37:32;;;;;;;5.55;4.70;;;16.50;70.20;;;;;;5015869;28;20022;-78
2023/05/13 07:39:58;;;;;;;5.55;4.38;;;16.50;70.20;;;;;;5015861;28;20402;-78
2023/05/13 07:42:26;;;;;;;5.88;4.10;;;16.60;70.20;;;;;;5048579;28;20054;-78
2023/05/13 07:44:51;;;;;;;5.00;4.50;;;16.60;70.20;;;;;;4999664;28;20026;-78
2023/05/13 07:47:17;;;;;;;5.20;4.13;;;16.60;70.20;;;;;;4999320;28;20041;-78
2023/05/13 07:49:43;;;;;;;4.93;4.40;;;16.70;70.20;;;;;;5048663;28;20125;-78
2023/05/13 07:52:08;;;;;;;4.88;4.07;;;16.70;70.10;;;;;;5015799;28;20026;-78
2023/05/13 07:54:34;;;;;;;5.30;4.50;;;16.70;70.10;;;;;;5015273;28;20036;-78
2023/05/13 07:57:00;;;;;;;4.78;4.00;;;16.80;70.10;;;;;;5017369;28;20034;-78
2023/05/13 07:59:26;;;;;;;4.80;4.10;;;16.90;70.00;;;;;;5032458;28;20053;-78
2023/05/13 08:01:51;;;;;;;5.07;4.28;;;16.90;70.00;;;;;;4998834;28;20391;-78
2023/05/13 08:04:17;;;;;;;5.40;4.13;;;17.00;69.90;;;;;;5015375;28;20128;-77
2023/05/13 08:06:43;;;;;;;5.35;4.13;;;17.00;69.90;;;;;;4999483;28;20026;-78
2023/05/13 08:09:11;;;;;;;5.63;4.50;;;17.10;69.80;;;;;;5017514;28;20497;-77
2023/05/13 08:11:37;;;;;;;5.82;4.43;;;17.20;69.80;;;;;;5016097;28;20463;-78
2023/05/13 08:14:04;;;;;;;4.70;3.80;;;17.30;69.80;;;;;;5016973;28;20037;-78
2023/05/13 08:16:29;;;;;;;5.00;4.03;;;17.30;69.70;;;;;;5031665;28;20025;-78
2023/05/13 08:18:56;;;;;;;4.75;3.78;;;17.40;69.60;;;;;;4998611;28;20124;-78
2023/05/13 08:21:22;;;;;;;5.40;4.47;;;17.50;69.50;;;;;;5031334;28;20030;-78
2023/05/13 08:23:52;;;;;;;4.55;3.75;;;17.60;69.50;;;;;;5015036;28;20033;-78
2023/05/13 08:26:18;;;;;;;4.68;3.85;;;17.60;69.40;;;;;;5015195;28;20121;-78
2023/05/13 08:28:44;;;;;;;4.75;3.92;;;17.70;69.30;;;;;;5016343;28;20059;-78
2023/05/13 08:31:13;;;;;;;4.80;3.80;;;17.80;69.30;;;;;;5015944;28;20037;-78
2023/05/13 08:33:40;;;;;;;4.85;4.22;;;17.90;69.20;;;;;;5030561;28;20080;-78
2023/05/13 08:36:07;;;;;;;7.25;4.07;;;17.90;69.10;;;;;;5015186;28;20034;-78
2023/05/13 08:38:33;;;;;;;5.05;3.88;;;18.00;69.00;;;;;;5016527;28;20041;-78
2023/05/13 08:41:00;;;;;;;4.22;3.47;;;18.10;68.90;;;;;;5014981;28;20054;-78
2023/05/13 08:43:27;;;;;;;3.72;3.30;;;18.20;68.80;;;;;;4998237;28;20033;-78
2023/05/13 08:45:55;;;;;;;4.43;3.63;;;18.30;68.80;;;;;;5047491;28;20467;-77
2023/05/13 08:48:23;;;;;;;4.40;3.50;;;18.40;68.70;;;;;;5031117;28;20065;-78
2023/05/13 08:50:49;;;;;;;4.53;3.63;;;18.40;68.50;;;;;;4998037;28;20413;-78
2023/05/13 08:53:17;;;;;;;4.85;3.53;;;18.60;68.40;;;;;;5047492;28;20034;-78
2023/05/13 08:55:43;;;;;;;4.07;3.20;;;18.70;68.60;;;;;;5031453;28;20533;-78
2023/05/13 08:58:09;;;;;;;4.25;3.45;;;18.70;68.30;;;;;;5015736;28;20041;-78
2023/05/13 09:00:35;;;;;;;3.88;3.20;;;18.80;68.20;;;;;;5014390;28;20038;-77
2023/05/13 09:03:01;;;;;;;3.85;3.22;;;18.90;68.20;;;;;;5014259;28;20057;-78
2023/05/13 09:05:27;;;;;;;3.80;3.40;;;19.00;68.10;;;;;;5030648;28;20040;-78
2023/05/13 09:07:53;;;;;;;4.28;3.10;;;19.10;68.00;;;;;;4998556;28;20022;-78
2023/05/13 09:10:20;;;;;;;4.43;3.40;;;19.20;67.90;;;;;;5014139;28;20500;-78
2023/05/13 09:12:53;;;;;;;3.88;3.38;;;19.30;67.80;;;;;;5014611;28;20029;-78
2023/05/13 09:15:24;;;;;;;3.17;2.60;;;19.40;67.70;;;;;;5047136;28;20478;-78
2023/05/13 09:18:04;;;;;;;4.07;2.88;;;19.50;67.60;;;;;;5030632;28;20501;-78
2023/05/13 09:20:30;;;;;;;3.03;2.72;;;19.60;67.60;;;;;;5030203;28;20124;-78
2023/05/13 09:23:01;;;;;;;3.72;2.83;;;19.70;67.40;;;;;;5013586;28;20114;-78
2023/05/13 09:25:27;;;;;;;3.45;2.90;;;19.80;67.40;;;;;;5014145;28;20034;-78
2023/05/13 09:27:57;;;;;;;3.40;3.10;;;19.90;67.40;;;;;;5015246;28;20101;-78
2023/05/13 09:30:39;;;;;;;3.47;2.95;;;20.00;67.40;;;;;;4997969;28;20072;-78
2023/05/13 09:33:16;;;;;;;3.90;3.38;;;20.10;67.30;;;;;;5029832;28;20501;-78
2023/05/13 09:35:53;;;;;;;3.33;2.70;;;20.30;67.30;;;;;;5030212;28;20033;-78
2023/05/13 09:38:31;;;;;;;3.47;3.00;;;20.40;67.10;;;;;;5031029;28;20080;-78
2023/05/13 09:40:58;;;;;;;3.78;2.88;;;20.50;67.00;;;;;;5013916;28;20053;-78
2023/05/13 09:43:26;;;;;;;3.80;2.95;;;20.60;66.90;;;;;;5029811;28;20076;-78
2023/05/13 09:45:59;;;;;;;3.70;2.90;;;20.70;66.80;;;;;;5029194;28;20038;-78
2023/05/13 09:48:28;;;;;;;3.75;2.97;;;20.80;66.80;;;;;;5046243;28;20056;-79
2023/05/13 09:50:56;;;;;;;3.13;2.75;;;20.90;66.70;;;;;;5029788;28;20030;-78
2023/05/13 09:53:21;;;;;;;3.90;3.15;;;21.00;66.60;;;;;;5029363;28;20040;-78
2023/05/13 09:55:49;;;;;;;3.47;2.78;;;21.10;66.60;;;;;;5029494;28;20026;-79
2023/05/13 09:58:15;;;;;;;3.60;2.70;;;21.20;66.50;;;;;;5029353;28;20038;-78
2023/05/13 10:00:42;;;;;;;3.00;2.70;;;21.30;66.40;;;;;;4997573;28;20100;-78
2023/05/13 10:03:11;;;;;;;2.92;2.42;;;21.40;66.30;;;;;;5013198;28;20463;-78
2023/05/13 10:05:39;;;;;;;3.83;2.90;;;21.50;66.20;;;;;;5013532;28;20026;-78
2023/05/13 10:08:08;;;;;;;4.70;2.83;;;21.60;66.20;;;;;;5032545;28;20501;-78
2023/05/13 10:10:34;;;;;;;3.78;2.67;;;21.70;66.20;;;;;;5035273;28;20151;-78
2023/05/13 10:13:12;;;;;;;3.42;2.67;;;21.80;66.10;;;;;;5002383;28;20044;-79
2023/05/13 10:15:52;;;;;;;3.40;2.50;;;21.90;66.10;;;;;;5031122;28;20038;-78
2023/05/13 10:18:20;;;;;;;4.20;2.60;;;22.00;66.10;;;;;;5029504;28;20049;-78
2023/05/13 10:20:46;;;;;;;3.30;2.67;;;22.10;66.00;;;;;;5046456;28;20541;-78
2023/05/13 10:23:12;;;;;;;3.35;2.78;;;22.20;65.90;;;;;;5013812;28;20439;-78
2023/05/13 10:25:38;;;;;;;2.83;2.47;;;22.30;65.90;;;;;;5013230;28;20037;-78
2023/05/13 10:28:04;;;;;;;2.90;2.60;;;22.40;65.80;;;;;;5012806;28;20477;-79
2023/05/13 10:30:34;;;;;;;3.10;2.70;;;22.50;65.80;;;;;;5014011;28;20117;-78
2023/05/13 10:33:01;;;;;;;3.47;2.67;;;22.60;65.80;;;;;;5029199;28;20076;-79
2023/05/13 10:35:39;;;;;;;3.10;2.53;;;22.70;65.70;;;;;;5013942;28;20049;-78
2023/05/13 10:38:28;;;;;;;2.78;2.47;;;22.80;65.60;;;;;;5014375;28;20026;-78
2023/05/13 10:41:29;;;;;;;3.42;2.80;;;22.90;65.50;;;;;;5011288;28;20479;-79
2023/05/13 10:43:57;;;;;;;2.67;2.30;;;23.00;65.50;;;;;;4997002;28;20467;-78
2023/05/13 10:46:22;;;;;;;2.47;2.20;;;23.10;65.40;;;;;;5046583;28;20053;-78
2023/05/13 10:48:53;;;;;;;2.80;2.42;;;23.20;65.40;;;;;;4996225;28;20390;-78
2023/05/13 10:51:23;;;;;;;2.72;2.45;;;23.30;65.30;;;;;;4996118;28;20026;-79
2023/05/13 10:53:53;;;;;;;2.83;2.50;;;23.40;65.30;;;;;;5028815;28;20072;-78
2023/05/13 10:56:21;;;;;;;2.45;2.17;;;23.40;65.20;;;;;;5045853;28;20037;-78
2023/05/13 10:59:01;;;;;;;2.95;2.55;;;23.50;65.20;;;;;;5032338;28;20034;-78
2023/05/13 11:01:41;;;;;;;3.22;2.60;;;23.60;65.30;;;;;;5017513;28;20034;-78
2023/05/13 11:04:15;;;;;;;3.50;2.50;;;23.70;65.30;;;;;;5000976;28;20030;-78
2023/05/13 11:06:45;;;;;;;2.85;2.28;;;23.80;65.20;;;;;;5033165;28;20124;-78
2023/05/13 11:09:28;;;;;;;2.95;2.22;;;23.80;65.20;;;;;;5017955;28;20029;-79
2023/05/13 11:11:55;;;;;;;3.67;2.40;;;23.90;65.20;;;;;;5032957;28;20033;-78
2023/05/13 11:14:23;;;;;;;3.08;2.47;;;24.00;65.20;;;;;;5000171;28;20065;-78
2023/05/13 11:17:01;;;;;;;4.03;2.17;;;24.00;65.30;;;;;;5016554;28;20045;-78
2023/05/13 11:19:35;;;;;;;3.30;2.50;;;24.10;65.30;;;;;;5016323;28;20042;-79
2023/05/13 11:22:21;;;;;;;3.03;2.40;;;24.10;65.30;;;;;;5032345;28;20105;-79
2023/05/13 11:25:11;;;;;;;2.30;2.10;;;24.20;65.40;;;;;;5016846;28;20021;-78
2023/05/13 11:27:39;;;;;;;3.25;2.08;;;24.20;65.50;;;;;;5032480;28;20029;-78
2023/05/13 11:30:06;;;;;;;3.83;2.25;;;24.20;65.40;;;;;;4999552;28;20092;-78
2023/05/13 11:32:54;;;;;;;2.60;2.40;;;24.30;65.60;;;;;;5032354;28;20405;-78
2023/05/13 11:35:21;;;;;;;2.83;2.30;;;24.30;65.80;;;;;;4999860;28;20116;-79
2023/05/13 11:37:48;;;;;;;2.97;2.33;;;24.40;65.80;;;;;;5032819;28;20118;-79
2023/05/13 11:40:25;;;;;;;3.08;2.55;;;24.40;65.80;;;;;;5048908;28;20475;-79
2023/05/13 11:42:52;;;;;;;2.85;2.55;;;24.40;65.80;;;;;;5012322;28;20130;-78
2023/05/13 11:45:19;;;;;;;2.85;2.40;;;24.40;65.80;;;;;;4979703;28;20042;-79
2023/05/13 11:47:45;;;;;;;3.10;2.50;;;24.50;66.50;;;;;;5012468;28;20361;-79
2023/05/13 11:50:20;;;;;;;3.03;2.55;;;24.50;65.90;;;;;;4996935;28;20391;-78
2023/05/13 11:52:54;;;;;;;3.53;2.65;;;24.60;66.10;;;;;;4995847;28;20452;-78
2023/05/13 11:55:30;;;;;;;3.35;2.40;;;24.60;66.20;;;;;;4997452;28;20026;-78
2023/05/13 11:57:57;;;;;;;3.42;2.45;;;24.60;66.20;;;;;;5012242;28;20046;-78
2023/05/13 12:00:33;;;;;;;3.15;2.55;;;24.60;66.20;;;;;;4995631;28;20550;-79
2023/05/13 12:03:01;;;;;;;2.60;2.33;;;24.70;66.20;;;;;;5012585;28;20110;-78
2023/05/13 12:05:27;;;;;;;2.95;2.38;;;24.70;66.20;;;;;;5012011;28;20456;-78
2023/05/13 12:07:57;;;;;;;3.83;2.40;;;24.70;66.90;;;;;;4979804;28;20090;-78
2023/05/13 12:10:23;;;;;;;2.38;2.17;;;24.80;66.20;;;;;;4995425;28;20040;-78
2023/05/13 12:12:49;;;;;;;3.03;2.40;;;24.80;66.30;;;;;;5011808;28;20036;-78
2023/05/13 12:15:17;;;;;;;2.80;2.50;;;24.80;66.20;;;;;;4996730;28;20026;-78
2023/05/13 12:17:44;;;;;;;2.72;2.33;;;24.80;66.20;;;;;;4996681;28;20030;-78
2023/05/13 12:20:13;;;;;;;2.75;2.20;;;24.80;66.20;;;;;;4979084;28;20365;-78
2023/05/13 12:22:42;;;;;;;3.88;2.72;;;24.90;66.20;;;;;;5027816;28;20038;-78
2023/05/13 12:25:41;;;;;;;3.00;2.58;;;24.90;66.20;;;;;;5028847;28;20391;-78
2023/05/13 12:28:07;;;;;;;2.95;2.25;;;24.90;66.20;;;;;;5011702;28;20093;-78
2023/05/13 12:30:35;;;;;;;3.30;2.50;;;25.00;66.00;;;;;;4979291;28;20034;-78
2023/05/13 12:33:00;;;;;;;3.78;2.13;;;25.00;66.00;;;;;;4996886;28;20072;-78
2023/05/13 12:35:26;;;;;;;3.47;2.67;;;25.00;65.90;;;;;;4979436;28;20031;-78
2023/05/13 12:38:03;;;;;;;2.92;2.47;;;25.00;66.50;;;;;;4962684;28;20042;-78
2023/05/13 12:40:29;;;;;;;3.03;2.30;;;25.00;65.80;;;;;;5011490;28;20038;-78
2023/05/13 12:42:59;;;;;;;3.10;2.25;;;25.00;65.70;;;;;;5014333;28;20076;-78
2023/05/13 12:45:29;;;;;;;2.78;2.22;;;25.10;65.60;;;;;;5014542;28;20038;-78
2023/05/13 12:47:55;;;;;;;2.83;2.30;;;25.10;65.60;;;;;;5016233;28;20038;-78
2023/05/13 12:50:22;;;;;;;2.97;2.53;;;25.10;65.60;;;;;;5014676;28;20092;-78
2023/05/13 12:52:48;;;;;;;3.05;2.40;;;25.10;65.50;;;;;;5014778;28;20128;-78